createdAt,value
2022-10-01T00:00:36.856Z,0.00
2022-10-01T00:01:37.457Z,0.00
2022-10-01T00:02:36.874Z,0.00
2022-10-01T00:03:36.825Z,0.00
2022-10-01T00:04:36.805Z,0.00
2022-10-01T00:05:36.805Z,0.00
2022-10-01T00:06:36.774Z,0.00
2022-10-01T00:07:37.135Z,0.00
2022-10-01T00:08:36.765Z,0.00
2022-10-01T00:09:36.756Z,0.00
2022-10-01T00:10:36.744Z,0.00
2022-10-01T00:11:37.549Z,0.00
2022-10-01T00:12:36.713Z,0.00
2022-10-01T00:13:36.707Z,0.00
2022-10-01T00:14:36.706Z,0.00
2022-10-01T00:15:36.704Z,0.00
2022-10-01T00:16:36.765Z,0.00
2022-10-01T00:17:36.693Z,0.00
2022-10-01T00:18:36.644Z,0.00
2022-10-01T00:19:36.648Z,0.00
2022-10-01T00:20:36.614Z,0.00
2022-10-01T00:21:36.928Z,0.00
2022-10-01T00:22:36.604Z,0.00
2022-10-01T00:23:36.596Z,0.00
2022-10-01T00:24:36.574Z,0.00
2022-10-01T00:25:36.602Z,0.00
2022-10-01T00:26:36.553Z,0.00
2022-10-01T00:27:36.544Z,0.00
2022-10-01T00:28:36.523Z,0.00
2022-10-01T00:29:36.542Z,0.00
2022-10-01T00:30:40.263Z,0.00
2022-10-01T00:31:37.851Z,0.00
2022-10-01T00:32:36.496Z,0.00
2022-10-01T00:33:36.494Z,0.00
2022-10-01T00:34:37.253Z,0.00
2022-10-01T00:35:36.503Z,0.00
2022-10-01T00:36:36.443Z,0.00
2022-10-01T00:37:36.436Z,0.00
2022-10-01T00:38:36.535Z,0.00
2022-10-01T00:39:36.431Z,0.00
2022-10-01T00:40:36.402Z,0.00
2022-10-01T00:41:36.758Z,0.00
2022-10-01T00:42:36.364Z,0.00
2022-10-01T00:43:36.373Z,0.00
2022-10-01T00:44:36.344Z,0.00
2022-10-01T00:45:36.424Z,0.00
2022-10-01T00:46:36.322Z,0.00
2022-10-01T00:47:36.331Z,0.00
2022-10-01T00:48:36.333Z,0.00
2022-10-01T00:49:36.302Z,0.00
2022-10-01T00:50:36.273Z,0.00
2022-10-01T00:51:36.617Z,0.00
2022-10-01T00:52:36.410Z,0.00
2022-10-01T00:53:36.263Z,0.00
2022-10-01T00:54:36.233Z,0.00
2022-10-01T00:55:36.241Z,0.00
2022-10-01T00:56:36.222Z,0.00
2022-10-01T00:57:36.213Z,0.00
2022-10-01T00:58:36.182Z,0.00
2022-10-01T00:59:36.202Z,0.00
2022-10-01T01:00:36.162Z,0.00
2022-10-01T01:01:36.603Z,0.00
2022-10-01T01:02:36.207Z,0.00
2022-10-01T01:03:36.141Z,0.00
2022-10-01T01:04:36.122Z,0.00
2022-10-01T01:05:36.121Z,0.00
2022-10-01T01:06:36.102Z,0.00
2022-10-01T01:07:36.101Z,0.00
2022-10-01T01:08:36.082Z,0.00
2022-10-01T01:09:36.079Z,0.00
2022-10-01T01:10:36.062Z,0.00
2022-10-01T01:11:36.456Z,0.00
2022-10-01T01:12:36.806Z,0.00
2022-10-01T01:13:36.041Z,0.00
2022-10-01T01:14:36.023Z,0.00
2022-10-01T01:15:36.039Z,0.00
2022-10-01T01:16:35.982Z,0.00
2022-10-01T01:17:35.993Z,0.00
2022-10-01T01:18:35.961Z,0.00
2022-10-01T01:19:36.002Z,0.00
2022-10-01T01:20:35.943Z,0.00
2022-10-01T01:21:36.265Z,0.00
2022-10-01T01:22:35.911Z,0.00
2022-10-01T01:23:35.927Z,0.00
2022-10-01T01:24:35.900Z,0.00
2022-10-01T01:25:35.909Z,0.00
2022-10-01T01:26:35.871Z,0.00
2022-10-01T01:27:35.878Z,0.00
2022-10-01T01:28:35.852Z,0.00
2022-10-01T01:29:35.850Z,0.00
2022-10-01T01:30:35.831Z,0.00
2022-10-01T01:31:36.226Z,0.00
2022-10-01T01:32:35.811Z,0.00
2022-10-01T01:33:35.809Z,0.00
2022-10-01T01:34:35.782Z,0.00
2022-10-01T01:35:35.800Z,0.00
2022-10-01T01:36:35.770Z,0.00
2022-10-01T01:37:35.759Z,0.00
2022-10-01T01:38:35.740Z,0.00
2022-10-01T01:39:35.740Z,0.00
2022-10-01T01:40:35.720Z,0.00
2022-10-01T01:41:36.096Z,0.00
2022-10-01T01:42:35.731Z,0.00
2022-10-01T01:43:35.699Z,0.00
2022-10-01T01:44:35.670Z,0.00
2022-10-01T01:45:35.713Z,0.00
2022-10-01T01:46:35.663Z,0.00
2022-10-01T01:47:35.650Z,0.00
2022-10-01T01:48:35.641Z,0.00
2022-10-01T01:49:35.629Z,0.00
2022-10-01T01:50:35.602Z,0.00
2022-10-01T01:51:35.909Z,0.00
2022-10-01T01:52:35.579Z,0.00
2022-10-01T01:53:36.320Z,0.00
2022-10-01T01:54:35.600Z,0.00
2022-10-01T01:55:35.557Z,0.00
2022-10-01T01:56:35.533Z,0.00
2022-10-01T01:57:35.540Z,0.00
2022-10-01T01:58:35.520Z,0.00
2022-10-01T01:59:35.530Z,0.00
2022-10-01T02:00:35.489Z,0.00
2022-10-01T02:01:35.967Z,0.00
2022-10-01T02:02:35.516Z,0.00
2022-10-01T02:03:35.485Z,0.00
2022-10-01T02:04:35.440Z,0.00
2022-10-01T02:05:35.449Z,0.00
2022-10-01T02:06:35.420Z,0.00
2022-10-01T02:07:35.426Z,0.00
2022-10-01T02:08:35.399Z,0.00
2022-10-01T02:09:35.410Z,0.00
2022-10-01T02:10:35.381Z,0.00
2022-10-01T02:11:35.645Z,0.00
2022-10-01T02:12:35.349Z,0.00
2022-10-01T02:13:35.366Z,0.00
2022-10-01T02:14:35.340Z,0.00
2022-10-01T02:15:35.575Z,0.00
2022-10-01T02:16:35.309Z,0.00
2022-10-01T02:17:35.300Z,0.00
2022-10-01T02:18:35.289Z,0.00
2022-10-01T02:19:35.278Z,0.00
2022-10-01T02:20:35.269Z,0.00
2022-10-01T02:21:35.689Z,0.00
2022-10-01T02:22:35.268Z,0.00
2022-10-01T02:23:35.238Z,0.00
2022-10-01T02:24:35.208Z,0.00
2022-10-01T02:25:35.229Z,0.00
2022-10-01T02:26:35.214Z,0.00
2022-10-01T02:27:35.208Z,0.00
2022-10-01T02:28:35.159Z,0.00
2022-10-01T02:29:35.167Z,0.00
2022-10-01T02:30:35.139Z,0.00
2022-10-01T02:31:35.500Z,0.00
2022-10-01T02:32:35.128Z,0.00
2022-10-01T02:33:35.128Z,0.00
2022-10-01T02:34:35.968Z,0.00
2022-10-01T02:35:35.098Z,0.00
2022-10-01T02:36:35.077Z,0.00
2022-10-01T02:37:35.078Z,0.00
2022-10-01T02:38:35.058Z,0.00
2022-10-01T02:39:35.058Z,0.00
2022-10-01T02:40:35.027Z,0.00
2022-10-01T02:41:35.401Z,0.00
2022-10-01T02:42:35.008Z,0.00
2022-10-01T02:43:37.335Z,0.00
2022-10-01T02:44:35.028Z,0.00
2022-10-01T02:45:35.202Z,0.00
2022-10-01T02:46:34.969Z,0.00
2022-10-01T02:47:34.957Z,0.00
2022-10-01T02:48:34.947Z,0.00
2022-10-01T02:49:34.964Z,0.00
2022-10-01T02:50:34.927Z,0.00
2022-10-01T02:51:35.286Z,0.00
2022-10-01T02:52:34.930Z,0.00
2022-10-01T02:53:34.965Z,0.00
2022-10-01T02:54:35.197Z,0.00
2022-10-01T02:55:35.626Z,0.00
2022-10-01T02:56:34.869Z,0.00
2022-10-01T02:57:34.878Z,0.00
2022-10-01T02:58:34.828Z,0.00
2022-10-01T02:59:34.851Z,0.00
2022-10-01T03:00:34.807Z,0.00
2022-10-01T03:01:35.110Z,0.00
2022-10-01T03:02:34.821Z,0.00
2022-10-01T03:03:34.794Z,0.00
2022-10-01T03:04:34.777Z,0.00
2022-10-01T03:05:34.768Z,0.00
2022-10-01T03:06:34.737Z,0.00
2022-10-01T03:07:34.738Z,0.00
2022-10-01T03:08:34.716Z,0.00
2022-10-01T03:09:34.720Z,0.00
2022-10-01T03:10:35.201Z,0.00
2022-10-01T03:11:35.049Z,0.00
2022-10-01T03:12:34.666Z,0.00
2022-10-01T03:13:34.675Z,0.00
2022-10-01T03:14:34.645Z,0.00
2022-10-01T03:15:34.731Z,0.00
2022-10-01T03:16:35.236Z,0.00
2022-10-01T03:17:34.627Z,0.00
2022-10-01T03:18:34.615Z,0.00
2022-10-01T03:19:34.607Z,0.00
2022-10-01T03:20:34.594Z,0.00
2022-10-01T03:21:34.994Z,0.00
2022-10-01T03:22:34.556Z,0.00
2022-10-01T03:23:34.585Z,0.00
2022-10-01T03:24:34.536Z,0.00
2022-10-01T03:25:34.536Z,0.00
2022-10-01T03:26:34.507Z,0.00
2022-10-01T03:27:34.516Z,0.00
2022-10-01T03:28:34.495Z,0.00
2022-10-01T03:29:34.495Z,0.00
2022-10-01T03:30:34.477Z,0.00
2022-10-01T03:31:34.852Z,0.00
2022-10-01T03:32:34.445Z,0.00
2022-10-01T03:33:34.455Z,0.00
2022-10-01T03:34:34.433Z,0.00
2022-10-01T03:35:35.125Z,0.00
2022-10-01T03:36:34.855Z,0.00
2022-10-01T03:37:35.308Z,0.00
2022-10-01T03:38:34.383Z,0.00
2022-10-01T03:39:34.416Z,0.00
2022-10-01T03:40:34.356Z,0.00
2022-10-01T03:41:34.709Z,0.00
2022-10-01T03:42:34.335Z,0.00
2022-10-01T03:43:34.334Z,0.00
2022-10-01T03:44:34.305Z,0.00
2022-10-01T03:45:34.355Z,0.00
2022-10-01T03:46:34.294Z,0.00
2022-10-01T03:47:34.294Z,0.00
2022-10-01T03:48:34.325Z,0.00
2022-10-01T03:49:34.267Z,0.00
2022-10-01T03:50:34.256Z,0.00
2022-10-01T03:51:34.503Z,0.00
2022-10-01T03:52:34.217Z,0.00
2022-10-01T03:53:34.237Z,0.00
2022-10-01T03:54:34.224Z,0.00
2022-10-01T03:55:34.215Z,0.00
2022-10-01T03:56:34.197Z,0.00
2022-10-01T03:57:34.221Z,0.00
2022-10-01T03:58:34.155Z,0.00
2022-10-01T03:59:34.176Z,0.00
2022-10-01T04:00:34.506Z,0.00
2022-10-01T04:01:34.447Z,0.00
2022-10-01T04:02:34.226Z,0.00
2022-10-01T04:03:34.113Z,0.00
2022-10-01T04:04:34.093Z,0.00
2022-10-01T04:05:34.794Z,0.00
2022-10-01T04:06:34.824Z,0.00
2022-10-01T04:07:34.066Z,0.00
2022-10-01T04:08:34.053Z,0.00
2022-10-01T04:09:34.025Z,0.00
2022-10-01T04:10:34.827Z,0.00
2022-10-01T04:11:35.013Z,0.00
2022-10-01T04:12:34.013Z,0.00
2022-10-01T04:13:33.985Z,0.00
2022-10-01T04:14:33.983Z,0.00
2022-10-01T04:15:34.723Z,0.00
2022-10-01T04:16:34.879Z,0.00
2022-10-01T04:17:33.962Z,0.00
2022-10-01T04:18:33.953Z,0.00
2022-10-01T04:19:33.924Z,0.00
2022-10-01T04:20:33.923Z,0.00
2022-10-01T04:21:34.219Z,0.00
2022-10-01T04:22:33.903Z,0.00
2022-10-01T04:23:33.864Z,0.00
2022-10-01T04:24:33.955Z,0.00
2022-10-01T04:25:33.854Z,0.00
2022-10-01T04:26:33.853Z,0.00
2022-10-01T04:27:33.833Z,0.00
2022-10-01T04:28:33.974Z,0.00
2022-10-01T04:29:36.815Z,0.00
2022-10-01T04:30:34.814Z,0.00
2022-10-01T04:31:34.061Z,0.00
2022-10-01T04:32:33.794Z,0.00
2022-10-01T04:33:33.823Z,0.00
2022-10-01T04:34:33.766Z,0.00
2022-10-01T04:35:33.742Z,0.00
2022-10-01T04:36:33.769Z,0.00
2022-10-01T04:37:34.533Z,0.00
2022-10-01T04:38:33.753Z,0.00
2022-10-01T04:39:34.472Z,0.00
2022-10-01T04:40:33.718Z,0.00
2022-10-01T04:41:34.930Z,0.00
2022-10-01T04:42:33.775Z,0.00
2022-10-01T04:43:33.773Z,0.00
2022-10-01T04:44:34.399Z,0.00
2022-10-01T04:45:34.402Z,0.00
2022-10-01T04:46:33.721Z,0.00
2022-10-01T04:47:37.365Z,0.00
2022-10-01T04:48:33.629Z,0.00
2022-10-01T04:49:34.531Z,0.00
2022-10-01T04:50:34.316Z,0.00
2022-10-01T04:51:33.791Z,0.00
2022-10-01T04:52:33.732Z,0.00
2022-10-01T04:53:33.531Z,0.00
2022-10-01T04:54:34.313Z,0.00
2022-10-01T04:55:34.342Z,0.00
2022-10-01T04:56:34.257Z,0.00
2022-10-01T04:57:33.513Z,0.00
2022-10-01T04:58:33.514Z,0.00
2022-10-01T04:59:33.461Z,0.00
2022-10-01T05:00:34.077Z,0.00
2022-10-01T05:01:33.786Z,0.00
2022-10-01T05:02:33.509Z,0.00
2022-10-01T05:03:33.431Z,0.00
2022-10-01T05:04:33.421Z,0.00
2022-10-01T05:05:33.402Z,0.00
2022-10-01T05:06:33.403Z,0.00
2022-10-01T05:07:33.374Z,0.00
2022-10-01T05:08:33.376Z,0.00
2022-10-01T05:09:33.354Z,0.00
2022-10-01T05:10:33.540Z,0.00
2022-10-01T05:11:33.610Z,0.00
2022-10-01T05:12:33.332Z,0.00
2022-10-01T05:13:33.320Z,0.00
2022-10-01T05:14:33.303Z,0.00
2022-10-01T05:15:33.781Z,0.00
2022-10-01T05:16:33.378Z,4.00
2022-10-01T05:17:34.152Z,4.00
2022-10-01T05:18:34.084Z,4.00
2022-10-01T05:19:33.252Z,4.00
2022-10-01T05:20:33.258Z,8.00
2022-10-01T05:21:33.482Z,4.00
2022-10-01T05:22:33.224Z,4.00
2022-10-01T05:23:33.195Z,4.00
2022-10-01T05:24:33.200Z,8.00
2022-10-01T05:25:33.180Z,8.00
2022-10-01T05:26:33.199Z,12.00
2022-10-01T05:27:33.161Z,8.00
2022-10-01T05:28:34.145Z,16.00
2022-10-01T05:29:33.132Z,20.00
2022-10-01T05:30:33.954Z,16.00
2022-10-01T05:31:33.522Z,20.00
2022-10-01T05:32:33.111Z,16.00
2022-10-01T05:33:33.083Z,20.00
2022-10-01T05:34:33.792Z,20.00
2022-10-01T05:35:33.065Z,16.00
2022-10-01T05:36:33.061Z,16.00
2022-10-01T05:37:33.110Z,24.00
2022-10-01T05:38:33.060Z,40.00
2022-10-01T05:39:33.022Z,32.00
2022-10-01T05:40:33.190Z,32.00
2022-10-01T05:41:33.325Z,32.00
2022-10-01T05:42:32.990Z,36.00
2022-10-01T05:43:32.968Z,44.00
2022-10-01T05:44:32.970Z,40.00
2022-10-01T05:45:33.022Z,44.00
2022-10-01T05:46:33.185Z,44.00
2022-10-01T05:47:32.927Z,36.00
2022-10-01T05:48:32.939Z,48.00
2022-10-01T05:49:32.912Z,80.00
2022-10-01T05:50:32.993Z,64.00
2022-10-01T05:51:33.125Z,52.00
2022-10-01T05:52:32.880Z,48.00
2022-10-01T05:53:32.859Z,68.00
2022-10-01T05:54:32.859Z,120.00
2022-10-01T05:55:33.571Z,92.00
2022-10-01T05:56:32.911Z,68.00
2022-10-01T05:57:32.810Z,88.00
2022-10-01T05:58:33.541Z,84.00
2022-10-01T05:59:32.850Z,100.00
2022-10-01T06:00:32.799Z,80.00
2022-10-01T06:01:33.104Z,92.00
2022-10-01T06:02:32.915Z,112.00
2022-10-01T06:03:32.759Z,100.00
2022-10-01T06:04:34.814Z,88.00
2022-10-01T06:05:33.720Z,84.00
2022-10-01T06:06:32.739Z,104.00
2022-10-01T06:07:32.702Z,180.00
2022-10-01T06:08:32.709Z,148.00
2022-10-01T06:09:32.691Z,124.00
2022-10-01T06:10:32.680Z,116.00
2022-10-01T06:11:32.984Z,152.00
2022-10-01T06:12:32.669Z,136.00
2022-10-01T06:13:32.630Z,152.00
2022-10-01T06:14:32.658Z,156.00
2022-10-01T06:15:32.619Z,132.00
2022-10-01T06:16:32.666Z,184.00
2022-10-01T06:17:32.617Z,184.00
2022-10-01T06:18:33.413Z,148.00
2022-10-01T06:19:33.323Z,200.00
2022-10-01T06:20:33.394Z,104.00
2022-10-01T06:21:32.832Z,120.00
2022-10-01T06:22:32.536Z,112.00
2022-10-01T06:23:32.809Z,80.00
2022-10-01T06:24:32.524Z,76.00
2022-10-01T06:25:32.489Z,84.00
2022-10-01T06:26:32.528Z,96.00
2022-10-01T06:27:32.470Z,136.00
2022-10-01T06:28:32.546Z,152.00
2022-10-01T06:29:32.457Z,116.00
2022-10-01T06:30:32.462Z,108.00
2022-10-01T06:31:32.877Z,124.00
2022-10-01T06:32:34.891Z,164.00
2022-10-01T06:33:32.408Z,200.00
2022-10-01T06:34:32.406Z,220.00
2022-10-01T06:35:32.378Z,328.00
2022-10-01T06:36:32.385Z,240.00
2022-10-01T06:37:32.348Z,220.00
2022-10-01T06:38:32.371Z,232.00
2022-10-01T06:39:33.071Z,260.00
2022-10-01T06:40:33.098Z,260.00
2022-10-01T06:41:32.701Z,340.00
2022-10-01T06:42:32.307Z,260.00
2022-10-01T06:43:32.309Z,212.00
2022-10-01T06:44:32.297Z,408.00
2022-10-01T06:45:32.383Z,472.00
2022-10-01T06:46:32.268Z,444.00
2022-10-01T06:47:32.258Z,380.00
2022-10-01T06:48:32.261Z,264.00
2022-10-01T06:49:32.230Z,268.00
2022-10-01T06:50:32.229Z,316.00
2022-10-01T06:51:32.481Z,404.00
2022-10-01T06:52:32.209Z,636.00
2022-10-01T06:53:32.187Z,688.00
2022-10-01T06:54:32.176Z,656.00
2022-10-01T06:55:32.147Z,704.00
2022-10-01T06:56:32.968Z,524.00
2022-10-01T06:57:32.176Z,428.00
2022-10-01T06:58:32.136Z,320.00
2022-10-01T06:59:32.947Z,288.00
2022-10-01T07:00:32.126Z,332.00
2022-10-01T07:01:32.960Z,504.00
2022-10-01T07:02:32.169Z,716.00
2022-10-01T07:03:32.066Z,720.00
2022-10-01T07:04:32.067Z,832.00
2022-10-01T07:05:32.054Z,760.00
2022-10-01T07:06:32.057Z,640.00
2022-10-01T07:07:32.015Z,488.00
2022-10-01T07:08:32.027Z,308.00
2022-10-01T07:09:31.987Z,288.00
2022-10-01T07:10:31.994Z,280.00
2022-10-01T07:11:32.250Z,372.00
2022-10-01T07:12:31.975Z,392.00
2022-10-01T07:13:31.946Z,380.00
2022-10-01T07:14:31.955Z,492.00
2022-10-01T07:15:31.916Z,716.00
2022-10-01T07:16:31.978Z,784.00
2022-10-01T07:17:31.906Z,688.00
2022-10-01T07:18:31.917Z,592.00
2022-10-01T07:19:31.886Z,496.00
2022-10-01T07:20:32.836Z,528.00
2022-10-01T07:21:33.090Z,552.00
2022-10-01T07:22:31.918Z,568.00
2022-10-01T07:23:31.846Z,476.00
2022-10-01T07:24:31.838Z,512.00
2022-10-01T07:25:31.827Z,488.00
2022-10-01T07:26:31.854Z,540.00
2022-10-01T07:27:31.824Z,520.00
2022-10-01T07:28:32.578Z,548.00
2022-10-01T07:29:32.489Z,556.00
2022-10-01T07:30:35.456Z,456.00
2022-10-01T07:31:32.198Z,576.00
2022-10-01T07:32:31.734Z,400.00
2022-10-01T07:33:31.735Z,456.00
2022-10-01T07:34:31.735Z,444.00
2022-10-01T07:35:31.725Z,556.00
2022-10-01T07:36:31.705Z,656.00
2022-10-01T07:37:31.665Z,580.00
2022-10-01T07:38:31.675Z,624.00
2022-10-01T07:39:31.647Z,664.00
2022-10-01T07:40:32.327Z,812.00
2022-10-01T07:41:32.242Z,832.00
2022-10-01T07:42:31.646Z,736.00
2022-10-01T07:43:31.603Z,820.00
2022-10-01T07:44:31.605Z,812.00
2022-10-01T07:45:31.632Z,740.00
2022-10-01T07:46:34.739Z,900.00
2022-10-01T07:47:31.568Z,876.00
2022-10-01T07:48:31.555Z,980.00
2022-10-01T07:49:31.530Z,784.00
2022-10-01T07:50:31.535Z,812.00
2022-10-01T07:51:31.797Z,868.00
2022-10-01T07:52:31.510Z,808.00
2022-10-01T07:53:31.486Z,716.00
2022-10-01T07:54:31.484Z,592.00
2022-10-01T07:55:31.455Z,592.00
2022-10-01T07:56:31.462Z,700.00
2022-10-01T07:57:31.435Z,568.00
2022-10-01T07:58:31.434Z,744.00
2022-10-01T07:59:31.493Z,888.00
2022-10-01T08:00:31.427Z,864.00
2022-10-01T08:01:31.719Z,804.00
2022-10-01T08:02:31.747Z,1112.00
2022-10-01T08:03:31.424Z,816.00
2022-10-01T08:04:31.364Z,964.00
2022-10-01T08:05:31.344Z,1012.00
2022-10-01T08:06:31.345Z,1036.00
2022-10-01T08:07:31.323Z,920.00
2022-10-01T08:08:31.314Z,1076.00
2022-10-01T08:09:31.314Z,960.00
2022-10-01T08:10:31.294Z,980.00
2022-10-01T08:11:31.674Z,1096.00
2022-10-01T08:12:31.294Z,820.00
2022-10-01T08:13:31.260Z,736.00
2022-10-01T08:14:31.253Z,900.00
2022-10-01T08:15:31.223Z,824.00
2022-10-01T08:16:31.295Z,696.00
2022-10-01T08:17:31.206Z,700.00
2022-10-01T08:18:31.223Z,768.00
2022-10-01T08:19:31.183Z,916.00
2022-10-01T08:20:31.194Z,1024.00
2022-10-01T08:21:31.789Z,708.00
2022-10-01T08:22:32.005Z,600.00
2022-10-01T08:23:31.164Z,488.00
2022-10-01T08:24:31.123Z,500.00
2022-10-01T08:25:31.123Z,544.00
2022-10-01T08:26:31.103Z,628.00
2022-10-01T08:27:31.103Z,740.00
2022-10-01T08:28:31.174Z,748.00
2022-10-01T08:29:31.090Z,520.00
2022-10-01T08:30:31.060Z,652.00
2022-10-01T08:31:31.181Z,680.00
2022-10-01T08:32:31.023Z,980.00
2022-10-01T08:33:31.035Z,1460.00
2022-10-01T08:34:31.043Z,2628.00
2022-10-01T08:35:31.244Z,2304.00
2022-10-01T08:36:30.983Z,2644.00
2022-10-01T08:37:30.992Z,3868.00
2022-10-01T08:38:30.965Z,3520.00
2022-10-01T08:39:30.962Z,4032.00
2022-10-01T08:40:31.033Z,5652.00
2022-10-01T08:41:30.950Z,2352.00
2022-10-01T08:42:30.930Z,2076.00
2022-10-01T08:43:30.943Z,3048.00
2022-10-01T08:44:30.893Z,1896.00
2022-10-01T08:45:30.954Z,1388.00
2022-10-01T08:46:30.874Z,1792.00
2022-10-01T08:47:30.872Z,1988.00
2022-10-01T08:48:30.872Z,3092.00
2022-10-01T08:49:30.853Z,2356.00
2022-10-01T08:50:30.864Z,2136.00
2022-10-01T08:51:30.840Z,1440.00
2022-10-01T08:52:30.802Z,2332.00
2022-10-01T08:53:30.803Z,2652.00
2022-10-01T08:54:30.782Z,2316.00
2022-10-01T08:55:30.782Z,1940.00
2022-10-01T08:56:30.754Z,2016.00
2022-10-01T08:57:30.752Z,2544.00
2022-10-01T08:58:30.740Z,2452.00
2022-10-01T08:59:30.742Z,3084.00
2022-10-01T09:00:30.726Z,2756.00
2022-10-01T09:01:30.786Z,2344.00
2022-10-01T09:02:31.494Z,2036.00
2022-10-01T09:03:31.395Z,3076.00
2022-10-01T09:04:30.738Z,3624.00
2022-10-01T09:05:30.672Z,3360.00
2022-10-01T09:06:30.632Z,2340.00
2022-10-01T09:07:30.642Z,2288.00
2022-10-01T09:08:30.613Z,2660.00
2022-10-01T09:09:30.623Z,2976.00
2022-10-01T09:10:30.592Z,2748.00
2022-10-01T09:11:30.622Z,2056.00
2022-10-01T09:12:30.573Z,2128.00
2022-10-01T09:13:30.572Z,3176.00
2022-10-01T09:14:30.542Z,3880.00
2022-10-01T09:15:30.552Z,2900.00
2022-10-01T09:16:30.580Z,2024.00
2022-10-01T09:17:30.531Z,2064.00
2022-10-01T09:18:30.501Z,2776.00
2022-10-01T09:19:30.513Z,2340.00
2022-10-01T09:20:30.481Z,1972.00
2022-10-01T09:21:30.538Z,2408.00
2022-10-01T09:22:30.461Z,2004.00
2022-10-01T09:23:31.141Z,2876.00
2022-10-01T09:24:30.443Z,2916.00
2022-10-01T09:25:30.453Z,3052.00
2022-10-01T09:26:30.425Z,3288.00
2022-10-01T09:27:30.421Z,3132.00
2022-10-01T09:28:30.426Z,2912.00
2022-10-01T09:29:30.392Z,2652.00
2022-10-01T09:30:30.417Z,2504.00
2022-10-01T09:31:30.419Z,3168.00
2022-10-01T09:32:30.341Z,3276.00
2022-10-01T09:33:30.353Z,3480.00
2022-10-01T09:34:30.311Z,3248.00
2022-10-01T09:35:30.362Z,3772.00
2022-10-01T09:36:30.303Z,3660.00
2022-10-01T09:37:30.301Z,3628.00
2022-10-01T09:38:30.271Z,3184.00
2022-10-01T09:39:30.281Z,2636.00
2022-10-01T09:40:30.254Z,2136.00
2022-10-01T09:41:30.272Z,1988.00
2022-10-01T09:42:30.230Z,2056.00
2022-10-01T09:43:30.429Z,2472.00
2022-10-01T09:44:30.213Z,2552.00
2022-10-01T09:45:30.267Z,2528.00
2022-10-01T09:46:30.191Z,2716.00
2022-10-01T09:47:30.189Z,2896.00
2022-10-01T09:48:30.161Z,2380.00
2022-10-01T09:49:30.179Z,2036.00
2022-10-01T09:50:30.154Z,2204.00
2022-10-01T09:51:30.164Z,1872.00
2022-10-01T09:52:30.140Z,1844.00
2022-10-01T09:53:30.191Z,1932.00
2022-10-01T09:54:30.127Z,1984.00
2022-10-01T09:55:30.139Z,2024.00
2022-10-01T09:56:30.080Z,1868.00
2022-10-01T09:57:30.111Z,1940.00
2022-10-01T09:58:30.052Z,2096.00
2022-10-01T09:59:30.090Z,2224.00
2022-10-01T10:00:30.031Z,2752.00
2022-10-01T10:01:30.060Z,2780.00
2022-10-01T10:02:30.164Z,2752.00
2022-10-01T10:03:31.132Z,2636.00
2022-10-01T10:04:30.912Z,3052.00
2022-10-01T10:05:30.020Z,3104.00
2022-10-01T10:06:30.059Z,4020.00
2022-10-01T10:07:29.981Z,3824.00
2022-10-01T10:08:29.948Z,3272.00
2022-10-01T10:09:29.951Z,2540.00
2022-10-01T10:10:29.923Z,2012.00
2022-10-01T10:11:29.942Z,2280.00
2022-10-01T10:12:29.919Z,2432.00
2022-10-01T10:13:29.912Z,3424.00
2022-10-01T10:14:29.962Z,2404.00
2022-10-01T10:15:29.901Z,1900.00
2022-10-01T10:16:29.851Z,2072.00
2022-10-01T10:17:29.861Z,2260.00
2022-10-01T10:18:29.831Z,2168.00
2022-10-01T10:19:29.830Z,1732.00
2022-10-01T10:20:29.930Z,1844.00
2022-10-01T10:21:29.820Z,1844.00
2022-10-01T10:22:29.780Z,1748.00
2022-10-01T10:23:29.793Z,2060.00
2022-10-01T10:24:29.783Z,2060.00
2022-10-01T10:25:29.791Z,1984.00
2022-10-01T10:26:29.762Z,2644.00
2022-10-01T10:27:29.776Z,3652.00
2022-10-01T10:28:29.818Z,3828.00
2022-10-01T10:29:29.721Z,3256.00
2022-10-01T10:30:29.714Z,3556.00
2022-10-01T10:31:29.740Z,2432.00
2022-10-01T10:32:29.674Z,2420.00
2022-10-01T10:33:29.697Z,3084.00
2022-10-01T10:34:29.652Z,2788.00
2022-10-01T10:35:29.652Z,3796.00
2022-10-01T10:36:29.794Z,2892.00
2022-10-01T10:37:29.661Z,2400.00
2022-10-01T10:38:29.631Z,2180.00
2022-10-01T10:39:29.724Z,1872.00
2022-10-01T10:40:29.982Z,1596.00
2022-10-01T10:41:29.613Z,1984.00
2022-10-01T10:42:29.592Z,2140.00
2022-10-01T10:43:29.573Z,3104.00
2022-10-01T10:44:29.570Z,2848.00
2022-10-01T10:45:29.571Z,4548.00
2022-10-01T10:46:29.581Z,6504.00
2022-10-01T10:47:29.523Z,7676.00
2022-10-01T10:48:29.502Z,9676.00
2022-10-01T10:49:29.502Z,7260.00
2022-10-01T10:50:29.565Z,5132.00
2022-10-01T10:51:29.693Z,4120.00
2022-10-01T10:52:29.451Z,3752.00
2022-10-01T10:53:29.884Z,3784.00
2022-10-01T10:54:29.443Z,5164.00
2022-10-01T10:55:29.498Z,7332.00
2022-10-01T10:56:29.461Z,6436.00
2022-10-01T10:57:29.441Z,8060.00
2022-10-01T10:58:29.399Z,9712.00
2022-10-01T10:59:29.383Z,8580.00
2022-10-01T11:00:30.150Z,9388.00
2022-10-01T11:01:29.461Z,7248.00
2022-10-01T11:02:29.369Z,6584.00
2022-10-01T11:03:29.680Z,7236.00
2022-10-01T11:04:29.341Z,6792.00
2022-10-01T11:05:29.342Z,6656.00
2022-10-01T11:06:30.081Z,5376.00
2022-10-01T11:07:29.330Z,4496.00
2022-10-01T11:08:29.271Z,4268.00
2022-10-01T11:09:30.066Z,2792.00
2022-10-01T11:10:29.613Z,3080.00
2022-10-01T11:11:29.251Z,4036.00
2022-10-01T11:12:29.231Z,4756.00
2022-10-01T11:13:29.232Z,6940.00
2022-10-01T11:14:29.202Z,7248.00
2022-10-01T11:15:29.201Z,7148.00
2022-10-01T11:16:29.181Z,5624.00
2022-10-01T11:17:29.182Z,4784.00
2022-10-01T11:18:29.181Z,3492.00
2022-10-01T11:19:29.161Z,3976.00
2022-10-01T11:20:29.900Z,3412.00
2022-10-01T11:21:29.190Z,3620.00
2022-10-01T11:22:29.105Z,4156.00
2022-10-01T11:23:29.111Z,4580.00
2022-10-01T11:24:29.231Z,3756.00
2022-10-01T11:25:29.936Z,5084.00
2022-10-01T11:26:29.093Z,4788.00
2022-10-01T11:27:29.293Z,5060.00
2022-10-01T11:28:29.099Z,4336.00
2022-10-01T11:29:29.051Z,4784.00
2022-10-01T11:30:29.023Z,5392.00
2022-10-01T11:31:29.300Z,5020.00
2022-10-01T11:32:29.001Z,5008.00
2022-10-01T11:33:29.001Z,5584.00
2022-10-01T11:34:28.980Z,6920.00
2022-10-01T11:35:28.978Z,5820.00
2022-10-01T11:36:28.952Z,5440.00
2022-10-01T11:37:28.983Z,4656.00
2022-10-01T11:38:28.932Z,3060.00
2022-10-01T11:39:28.932Z,1652.00
2022-10-01T11:40:29.634Z,1696.00
2022-10-01T11:41:28.913Z,1948.00
2022-10-01T11:42:28.913Z,1828.00
2022-10-01T11:43:28.882Z,1648.00
2022-10-01T11:44:28.861Z,1684.00
2022-10-01T11:45:29.670Z,1512.00
2022-10-01T11:46:28.888Z,1620.00
2022-10-01T11:47:28.889Z,1484.00
2022-10-01T11:48:28.822Z,1412.00
2022-10-01T11:49:28.832Z,1724.00
2022-10-01T11:50:28.907Z,2088.00
2022-10-01T11:51:28.792Z,2152.00
2022-10-01T11:52:28.763Z,1920.00
2022-10-01T11:53:29.546Z,2340.00
2022-10-01T11:54:28.882Z,2480.00
2022-10-01T11:55:29.479Z,2152.00
2022-10-01T11:56:28.780Z,1332.00
2022-10-01T11:57:28.732Z,1248.00
2022-10-01T11:58:28.753Z,1268.00
2022-10-01T11:59:28.874Z,1264.00
2022-10-01T12:00:28.682Z,1288.00
2022-10-01T12:01:28.697Z,1344.00
2022-10-01T12:02:28.703Z,1380.00
2022-10-01T12:03:28.821Z,1928.00
2022-10-01T12:04:28.693Z,3920.00
2022-10-01T12:05:28.672Z,3996.00
2022-10-01T12:06:34.234Z,3948.00
2022-10-01T12:07:29.737Z,3964.00
2022-10-01T12:08:28.591Z,3972.00
2022-10-01T12:09:28.603Z,2868.00
2022-10-01T12:10:28.554Z,2808.00
2022-10-01T12:11:28.693Z,2432.00
2022-10-01T12:12:28.581Z,3992.00
2022-10-01T12:13:28.556Z,4188.00
2022-10-01T12:14:28.623Z,3408.00
2022-10-01T12:15:28.543Z,4248.00
2022-10-01T12:16:28.577Z,3652.00
2022-10-01T12:17:28.600Z,3552.00
2022-10-01T12:18:28.602Z,3088.00
2022-10-01T12:19:28.472Z,2792.00
2022-10-01T12:20:28.454Z,2688.00
2022-10-01T12:21:28.442Z,3460.00
2022-10-01T12:22:28.424Z,4036.00
2022-10-01T12:23:28.425Z,5036.00
2022-10-01T12:24:28.391Z,5584.00
2022-10-01T12:25:28.601Z,5960.00
2022-10-01T12:26:28.474Z,6048.00
2022-10-01T12:27:28.392Z,5856.00
2022-10-01T12:28:28.452Z,4548.00
2022-10-01T12:29:28.353Z,4640.00
2022-10-01T12:30:28.442Z,3368.00
2022-10-01T12:31:28.516Z,4620.00
2022-10-01T12:32:28.312Z,4576.00
2022-10-01T12:33:28.314Z,3256.00
2022-10-01T12:34:28.330Z,2816.00
2022-10-01T12:35:28.283Z,3896.00
2022-10-01T12:36:28.270Z,4588.00
2022-10-01T12:37:28.554Z,4568.00
2022-10-01T12:38:28.263Z,4740.00
2022-10-01T12:39:28.594Z,4788.00
2022-10-01T12:40:28.637Z,3552.00
2022-10-01T12:41:28.203Z,3660.00
2022-10-01T12:42:28.250Z,4104.00